createdAt,value
2018-05-02T00:00:50.479Z,60.69
2018-05-02T00:03:01.559Z,60.35
2018-05-02T00:05:12.654Z,60.59
2018-05-02T00:07:23.738Z,60.73
2018-05-02T00:09:34.921Z,60.66
2018-05-02T00:11:46.095Z,60.62
2018-05-02T00:13:57.271Z,60.60
2018-05-02T00:16:08.507Z,60.61
2018-05-02T00:18:19.574Z,60.71
2018-05-02T00:20:30.703Z,60.76
2018-05-02T00:22:41.762Z,60.99
2018-05-02T00:24:52.801Z,60.72
2018-05-02T00:27:03.874Z,60.70
2018-05-02T00:29:14.978Z,60.59
2018-05-02T00:31:26.090Z,60.84
2018-05-02T00:33:37.302Z,60.97
2018-05-02T00:35:48.694Z,60.79
2018-05-02T00:37:59.785Z,60.59
2018-05-02T00:40:10.838Z,60.42
2018-05-02T00:42:21.955Z,60.67
2018-05-02T00:44:33.031Z,60.46
2018-05-02T00:46:44.118Z,60.36
2018-05-02T00:49:07.411Z,60.60
2018-05-02T00:51:18.526Z,60.77
2018-05-02T00:53:29.593Z,60.65
2018-05-02T00:55:40.677Z,60.90
2018-05-02T00:57:51.774Z,61.02
2018-05-02T01:00:02.954Z,61.06
2018-05-02T01:02:14.082Z,61.09
2018-05-02T01:04:25.241Z,61.18
2018-05-02T01:06:36.310Z,61.02
2018-05-02T01:08:47.409Z,61.06
2018-05-02T01:10:58.486Z,61.46
2018-05-02T01:13:09.581Z,61.85
2018-05-02T01:15:20.642Z,61.86
2018-05-02T01:17:31.741Z,61.51
2018-05-02T01:19:42.905Z,61.36
2018-05-02T01:21:53.949Z,61.04
2018-05-02T01:24:05.109Z,61.15
2018-05-02T01:26:16.166Z,60.86
2018-05-02T01:28:27.273Z,61.14
2018-05-02T01:30:38.363Z,61.41
2018-05-02T01:32:49.431Z,61.45
2018-05-02T01:35:00.578Z,61.07
2018-05-02T01:37:11.666Z,61.02
2018-05-02T01:39:22.832Z,60.95
2018-05-02T01:41:33.893Z,60.68
2018-05-02T01:43:44.996Z,60.66
2018-05-02T01:45:56.055Z,60.36
2018-05-02T01:48:07.133Z,59.80
2018-05-02T01:50:18.194Z,59.51
2018-05-02T01:52:29.334Z,59.47
2018-05-02T01:54:40.542Z,59.16
2018-05-02T01:56:51.664Z,59.60
2018-05-02T01:59:02.698Z,59.75
2018-05-02T02:01:13.797Z,59.97
2018-05-02T02:03:24.873Z,59.85
2018-05-02T02:05:35.958Z,59.71
2018-05-02T02:07:47.205Z,59.59
2018-05-02T02:09:58.323Z,59.67
2018-05-02T02:12:09.537Z,59.20
2018-05-02T02:14:20.714Z,59.21
2018-05-02T02:16:31.796Z,58.78
2018-05-02T02:18:43.025Z,58.83
2018-05-02T02:20:54.103Z,59.15
2018-05-02T02:23:05.182Z,58.65
2018-05-02T02:25:16.258Z,59.61
2018-05-02T02:27:27.318Z,59.03
2018-05-02T02:29:38.368Z,58.83
2018-05-02T02:31:49.550Z,58.84
2018-05-02T02:34:00.769Z,58.46
2018-05-02T02:36:11.798Z,58.45
2018-05-02T02:38:22.838Z,58.29
2018-05-02T02:40:33.906Z,58.66
2018-05-02T02:42:45.008Z,58.79
2018-05-02T02:44:56.100Z,59.11
2018-05-02T02:47:07.256Z,59.16
2018-05-02T02:49:18.318Z,58.89
2018-05-02T02:51:29.457Z,58.99
2018-05-02T02:53:40.577Z,59.07
2018-05-02T02:55:51.674Z,59.28
2018-05-02T02:58:02.833Z,58.59
2018-05-02T03:00:13.896Z,58.09
2018-05-02T03:02:25.074Z,57.68
2018-05-02T03:04:36.157Z,57.25
2018-05-02T03:06:47.273Z,57.22
2018-05-02T03:08:58.348Z,57.14
2018-05-02T03:11:09.430Z,57.09
2018-05-02T03:13:20.557Z,57.39
2018-05-02T03:15:31.659Z,57.48
2018-05-02T03:17:42.721Z,57.50
2018-05-02T03:19:53.818Z,57.50
2018-05-02T03:22:05.038Z,57.48
2018-05-02T03:24:16.114Z,57.50
2018-05-02T03:26:27.183Z,57.22
2018-05-02T03:28:38.333Z,56.88
2018-05-02T03:30:49.450Z,57.18
2018-05-02T03:33:00.506Z,58.06
2018-05-02T03:35:11.623Z,58.37
2018-05-02T03:37:22.696Z,58.89
2018-05-02T03:39:33.771Z,59.18
2018-05-02T03:41:44.833Z,58.80
2018-05-02T03:43:55.975Z,59.35
2018-05-02T03:46:07.145Z,59.29
2018-05-02T03:48:18.204Z,59.03
2018-05-02T03:50:29.408Z,58.72
2018-05-02T03:52:40.461Z,58.23
2018-05-02T03:54:51.553Z,58.36
2018-05-02T03:57:02.606Z,57.93
2018-05-02T03:59:13.727Z,57.80
2018-05-02T04:01:37.163Z,57.85
2018-05-02T04:04:00.611Z,57.44
2018-05-02T04:06:23.922Z,57.68
2018-05-02T04:08:35.100Z,58.17
2018-05-02T04:10:46.125Z,58.32
2018-05-02T04:12:57.262Z,58.45
2018-05-02T04:15:08.297Z,58.99
2018-05-02T04:17:19.354Z,59.00
2018-05-02T04:19:30.444Z,59.11
2018-05-02T04:21:41.611Z,58.99
2018-05-02T04:23:52.733Z,59.60
2018-05-02T04:26:03.937Z,59.71
2018-05-02T04:28:15.087Z,59.59
2018-05-02T04:30:26.132Z,59.51
2018-05-02T04:32:37.201Z,58.94
2018-05-02T04:34:48.261Z,59.64
2018-05-02T04:36:59.318Z,59.67
2018-05-02T04:39:10.421Z,59.33
2018-05-02T04:41:21.506Z,59.17
2018-05-02T04:43:32.623Z,58.18
2018-05-02T04:45:43.810Z,57.64
2018-05-02T04:47:54.862Z,57.35
2018-05-02T04:50:05.897Z,56.96
2018-05-02T04:52:17.029Z,56.48
2018-05-02T04:54:28.110Z,57.45
2018-05-02T04:56:39.183Z,57.75
2018-05-02T04:58:50.277Z,57.44
2018-05-02T05:01:01.343Z,56.48
2018-05-02T05:03:12.409Z,56.12
2018-05-02T05:05:23.764Z,56.31
2018-05-02T05:07:34.833Z,56.60
2018-05-02T05:09:45.905Z,56.74
2018-05-02T05:11:56.973Z,56.95
2018-05-02T05:14:08.062Z,56.83
2018-05-02T05:16:19.195Z,57.09
2018-05-02T05:18:30.339Z,56.95
2018-05-02T05:20:41.390Z,56.61
2018-05-02T05:22:53.374Z,56.85
2018-05-02T05:25:04.422Z,56.52
2018-05-02T05:27:15.537Z,56.66
2018-05-02T05:29:26.628Z,57.04
2018-05-02T05:31:37.786Z,57.55
2018-05-02T05:33:48.885Z,57.63
2018-05-02T05:35:59.977Z,57.61
2018-05-02T05:38:12.010Z,57.38
2018-05-02T05:40:23.117Z,57.34
2018-05-02T05:42:35.189Z,57.72
2018-05-02T05:44:46.294Z,58.38
2018-05-02T05:46:57.377Z,58.45
2018-05-02T05:49:08.439Z,58.05
2018-05-02T05:51:19.537Z,57.18
2018-05-02T05:53:30.598Z,57.51
2018-05-02T05:55:41.653Z,57.39
2018-05-02T05:57:52.725Z,57.99
2018-05-02T06:00:03.842Z,57.81
2018-05-02T06:02:14.977Z,57.20
2018-05-02T06:04:26.211Z,56.82
2018-05-02T06:06:37.293Z,56.65
2018-05-02T06:08:48.378Z,56.47
2018-05-02T06:10:59.450Z,56.35
2018-05-02T06:13:10.489Z,56.23
2018-05-02T06:15:21.590Z,55.89
2018-05-02T06:17:32.675Z,55.69
2018-05-02T06:19:43.767Z,55.91
2018-05-02T06:21:54.856Z,56.30
2018-05-02T06:24:06.067Z,56.47
2018-05-02T06:26:17.221Z,56.61
2018-05-02T06:28:28.211Z,56.80
2018-05-02T06:30:39.274Z,56.87
2018-05-02T06:32:50.313Z,57.37
2018-05-02T06:35:01.461Z,57.57
2018-05-02T06:37:12.534Z,56.63
2018-05-02T06:39:23.751Z,55.68
2018-05-02T06:41:34.818Z,55.78
2018-05-02T06:43:45.974Z,56.01
2018-05-02T06:45:57.035Z,57.09
2018-05-02T06:48:08.111Z,56.38
2018-05-02T06:50:19.284Z,56.40
2018-05-02T06:52:30.302Z,56.03
2018-05-02T06:54:41.436Z,56.53
2018-05-02T06:56:52.858Z,56.11
2018-05-02T06:59:04.010Z,56.49
2018-05-02T07:01:15.131Z,56.62
2018-05-02T07:03:26.235Z,55.65
2018-05-02T07:05:37.310Z,55.87
2018-05-02T07:07:48.382Z,55.01
2018-05-02T07:09:59.445Z,55.36
2018-05-02T07:12:10.506Z,54.98
2018-05-02T07:14:21.624Z,55.76
2018-05-02T07:16:32.781Z,55.65
2018-05-02T07:18:43.884Z,55.48
2018-05-02T07:20:54.974Z,55.09
2018-05-02T07:23:06.024Z,55.00
2018-05-02T07:25:17.129Z,56.12
2018-05-02T07:27:28.250Z,55.94
2018-05-02T07:29:39.334Z,55.94
2018-05-02T07:31:50.527Z,56.81
2018-05-02T07:34:01.615Z,56.39
2018-05-02T07:36:12.846Z,56.33
2018-05-02T07:38:24.046Z,56.01
2018-05-02T07:40:35.151Z,55.63
2018-05-02T07:42:46.355Z,55.12
2018-05-02T07:44:57.411Z,54.98
2018-05-02T07:47:08.485Z,55.05
2018-05-02T07:49:19.530Z,55.20
2018-05-02T07:51:30.605Z,55.00
2018-05-02T07:53:41.718Z,55.04
2018-05-02T07:55:52.787Z,55.28
2018-05-02T07:58:03.912Z,55.17
2018-05-02T08:00:14.884Z,55.41
2018-05-02T08:02:25.963Z,55.17
2018-05-02T08:04:37.041Z,55.22
2018-05-02T08:06:48.205Z,54.92
2018-05-02T08:08:59.266Z,54.58
2018-05-02T08:11:10.508Z,54.96
2018-05-02T08:13:21.461Z,54.74
2018-05-02T08:15:32.586Z,54.56
2018-05-02T08:17:43.676Z,55.10
2018-05-02T08:19:54.750Z,53.78
2018-05-02T08:22:05.828Z,53.83
2018-05-02T08:24:16.898Z,53.78
2018-05-02T08:26:28.006Z,52.88
2018-05-02T08:28:39.104Z,51.96
2018-05-02T08:30:50.182Z,51.97
2018-05-02T08:33:01.293Z,50.93
2018-05-02T08:35:12.357Z,50.40
2018-05-02T08:37:23.456Z,49.87
2018-05-02T08:39:34.549Z,49.66
2018-05-02T08:41:45.675Z,48.91
2018-05-02T08:43:56.783Z,49.08
2018-05-02T08:46:07.873Z,48.87
2018-05-02T08:48:18.958Z,48.69
2018-05-02T08:50:30.022Z,48.14
2018-05-02T08:52:41.118Z,48.15
2018-05-02T08:54:52.148Z,47.87
2018-05-02T08:57:03.237Z,47.21
2018-05-02T08:59:14.321Z,46.68
2018-05-02T09:01:25.376Z,45.63
2018-05-02T09:03:36.522Z,46.61
2018-05-02T09:05:47.612Z,45.85
2018-05-02T09:07:58.714Z,46.04
2018-05-02T09:10:09.790Z,45.60
2018-05-02T09:12:20.906Z,45.21
2018-05-02T09:14:31.978Z,45.13
2018-05-02T09:16:43.080Z,45.38
2018-05-02T09:18:54.283Z,44.62
2018-05-02T09:21:05.395Z,43.94
2018-05-02T09:23:16.589Z,44.07
2018-05-02T09:25:27.682Z,43.84
2018-05-02T09:27:38.752Z,43.67
2018-05-02T09:29:49.819Z,44.35
2018-05-02T09:32:00.942Z,43.76
2018-05-02T09:34:12.063Z,43.73
2018-05-02T09:36:23.211Z,44.03
2018-05-02T09:38:34.406Z,43.78
2018-05-02T09:40:45.510Z,43.72
2018-05-02T09:42:56.613Z,44.14
2018-05-02T09:45:07.684Z,44.08
2018-05-02T09:47:18.777Z,43.88
2018-05-02T09:49:29.853Z,44.29
2018-05-02T09:51:40.977Z,43.76
2018-05-02T09:53:52.058Z,44.70
2018-05-02T09:56:03.220Z,44.91
2018-05-02T09:58:14.457Z,43.83
2018-05-02T10:00:29.361Z,43.64
2018-05-02T10:02:40.450Z,44.01
2018-05-02T10:04:51.517Z,44.02
2018-05-02T10:07:02.609Z,44.45
2018-05-02T10:09:13.750Z,43.92
2018-05-02T10:11:24.854Z,44.34
2018-05-02T10:13:35.998Z,43.87
2018-05-02T10:15:47.194Z,44.66
2018-05-02T10:17:58.514Z,44.13
2018-05-02T10:20:09.570Z,43.88
2018-05-02T10:22:20.775Z,44.04
2018-05-02T10:24:31.862Z,44.21
2018-05-02T10:26:42.916Z,44.06
2018-05-02T10:28:53.989Z,44.02
2018-05-02T10:31:05.122Z,44.55
2018-05-02T10:33:16.238Z,45.03
2018-05-02T10:35:27.361Z,42.92
2018-05-02T10:37:38.634Z,42.89
2018-05-02T10:39:49.789Z,42.95
2018-05-02T10:42:00.877Z,43.37
2018-05-02T10:44:11.981Z,43.31
2018-05-02T10:46:23.048Z,43.77
2018-05-02T10:48:34.123Z,42.94
2018-05-02T10:50:45.216Z,42.09
2018-05-02T10:52:56.303Z,42.53
2018-05-02T10:55:07.548Z,43.38
2018-05-02T10:57:18.691Z,42.96
2018-05-02T10:59:29.780Z,42.56
2018-05-02T11:01:40.986Z,43.18
2018-05-02T11:03:52.100Z,42.25
2018-05-02T11:06:03.227Z,42.47
2018-05-02T11:08:14.356Z,42.41
2018-05-02T11:10:25.426Z,42.77
2018-05-02T11:12:36.524Z,42.09
2018-05-02T11:14:47.635Z,43.60
2018-05-02T11:16:58.737Z,42.62
2018-05-02T11:19:09.786Z,42.31
2018-05-02T11:21:20.906Z,41.79
2018-05-02T11:23:32.015Z,40.66
2018-05-02T11:25:43.141Z,40.54
2018-05-02T11:27:54.239Z,41.40
2018-05-02T11:30:05.354Z,40.98
2018-05-02T11:32:16.423Z,41.33
2018-05-02T11:34:27.562Z,42.15
2018-05-02T11:36:38.737Z,40.05
2018-05-02T11:38:49.793Z,40.19
2018-05-02T11:41:00.909Z,39.71
2018-05-02T11:43:12.002Z,40.00
2018-05-02T11:45:23.174Z,40.28
2018-05-02T11:47:34.314Z,40.81
2018-05-02T11:49:45.404Z,40.62
2018-05-02T11:51:56.524Z,41.48
2018-05-02T11:54:07.703Z,39.65
2018-05-02T11:56:18.790Z,38.56
2018-05-02T11:58:29.913Z,39.35
2018-05-02T12:00:40.990Z,39.31
2018-05-02T12:02:52.073Z,40.45
2018-05-02T12:05:03.207Z,40.35
2018-05-02T12:07:14.300Z,39.90
2018-05-02T12:09:25.524Z,39.88
2018-05-02T12:11:36.650Z,40.13
2018-05-02T12:13:47.754Z,39.96
2018-05-02T12:15:59.037Z,40.42
2018-05-02T12:18:10.090Z,39.71
2018-05-02T12:20:21.184Z,40.23
2018-05-02T12:22:32.345Z,39.43
2018-05-02T12:24:43.442Z,40.51
2018-05-02T12:26:54.542Z,41.69
2018-05-02T12:29:05.658Z,40.85
2018-05-02T12:31:16.754Z,40.81
2018-05-02T12:33:27.906Z,39.94
2018-05-02T12:35:39.077Z,40.45
2018-05-02T12:37:50.191Z,40.41
2018-05-02T12:40:01.286Z,39.93
2018-05-02T12:42:13.628Z,39.88
2018-05-02T12:44:24.847Z,40.24
2018-05-02T12:46:36.090Z,39.53
2018-05-02T12:48:47.205Z,40.39
2018-05-02T12:50:58.294Z,39.48
2018-05-02T12:53:09.470Z,40.17
2018-05-02T12:55:20.558Z,39.95
2018-05-02T12:57:31.606Z,40.21
2018-05-02T12:59:43.723Z,39.73
2018-05-02T13:01:54.798Z,40.17
2018-05-02T13:04:05.901Z,40.31
2018-05-02T13:06:16.994Z,39.64
2018-05-02T13:08:28.075Z,40.02
2018-05-02T13:10:39.306Z,39.34
2018-05-02T13:12:50.389Z,39.95
2018-05-02T13:15:01.597Z,40.16
2018-05-02T13:17:12.686Z,38.99
2018-05-02T13:19:23.815Z,39.61
2018-05-02T13:21:34.984Z,40.08
2018-05-02T13:23:46.073Z,40.23
2018-05-02T13:25:57.166Z,39.48
2018-05-02T13:28:08.242Z,39.32
2018-05-02T13:30:19.414Z,39.66
2018-05-02T13:32:30.471Z,39.02
2018-05-02T13:34:41.587Z,39.42
2018-05-02T13:36:52.727Z,38.74
2018-05-02T13:39:04.638Z,39.45
2018-05-02T13:41:15.766Z,39.15
2018-05-02T13:43:26.905Z,38.93
2018-05-02T13:45:38.062Z,38.94
2018-05-02T13:47:49.150Z,38.99
2018-05-02T13:50:00.242Z,39.15
2018-05-02T13:52:11.322Z,40.07
2018-05-02T13:54:22.426Z,39.53
2018-05-02T13:56:33.609Z,39.46
2018-05-02T13:58:44.683Z,39.42
2018-05-02T14:00:55.810Z,39.14
2018-05-02T14:03:06.905Z,39.37
2018-05-02T14:05:18.006Z,38.97
2018-05-02T14:07:29.171Z,40.00
2018-05-02T14:09:40.278Z,40.32
2018-05-02T14:11:51.357Z,39.46
2018-05-02T14:14:02.446Z,39.36
2018-05-02T14:16:13.541Z,39.19
2018-05-02T14:18:24.657Z,39.39
2018-05-02T14:20:35.810Z,39.33
2018-05-02T14:22:46.922Z,40.68
2018-05-02T14:24:58.070Z,39.65
2018-05-02T14:27:09.116Z,39.62
2018-05-02T14:29:20.206Z,39.49
2018-05-02T14:31:31.314Z,39.60
2018-05-02T14:33:42.370Z,40.19
2018-05-02T14:35:53.491Z,40.80
2018-05-02T14:38:04.677Z,40.67
2018-05-02T14:40:15.925Z,40.14
2018-05-02T14:42:27.019Z,40.70
2018-05-02T14:44:38.081Z,40.80
2018-05-02T14:46:49.162Z,41.25
2018-05-02T14:49:00.266Z,41.82
2018-05-02T14:51:11.365Z,42.90
2018-05-02T14:53:22.471Z,41.98
2018-05-02T14:55:33.667Z,40.93
2018-05-02T14:57:44.709Z,40.48
2018-05-02T14:59:55.806Z,40.60
2018-05-02T15:02:07.010Z,40.52
2018-05-02T15:04:18.006Z,40.31
2018-05-02T15:06:29.078Z,40.05
2018-05-02T15:08:40.185Z,40.20
2018-05-02T15:10:51.281Z,40.45
2018-05-02T15:13:02.432Z,41.05
2018-05-02T15:15:13.534Z,40.70
2018-05-02T15:17:24.659Z,40.59
2018-05-02T15:19:35.742Z,41.78
2018-05-02T15:21:46.855Z,42.25
2018-05-02T15:23:57.978Z,41.03
2018-05-02T15:26:09.101Z,40.70
2018-05-02T15:28:20.289Z,41.24
2018-05-02T15:30:31.394Z,40.91
2018-05-02T15:32:42.527Z,41.24
2018-05-02T15:34:53.685Z,40.93
2018-05-02T15:37:04.868Z,41.12
2018-05-02T15:39:16.113Z,41.17
2018-05-02T15:41:27.187Z,41.00
2018-05-02T15:43:38.469Z,41.80
2018-05-02T15:45:49.558Z,40.34
2018-05-02T15:48:00.708Z,41.12
2018-05-02T15:50:11.817Z,41.40
2018-05-02T15:52:22.927Z,42.38
2018-05-02T15:54:34.151Z,42.23
2018-05-02T15:56:45.237Z,41.90
2018-05-02T15:58:56.480Z,42.75
2018-05-02T16:01:07.760Z,43.30
2018-05-02T16:03:18.865Z,42.42
2018-05-02T16:05:30.023Z,42.67
2018-05-02T16:07:41.141Z,42.77
2018-05-02T16:09:52.307Z,42.68
2018-05-02T16:12:03.428Z,42.80
2018-05-02T16:14:14.560Z,41.72
2018-05-02T16:16:25.850Z,41.78
2018-05-02T16:18:36.930Z,42.15
2018-05-02T16:20:48.118Z,42.91
2018-05-02T16:22:59.225Z,41.87
2018-05-02T16:25:10.330Z,41.88
2018-05-02T16:27:21.423Z,42.05
2018-05-02T16:29:32.494Z,42.24
2018-05-02T16:31:43.642Z,42.51
2018-05-02T16:33:54.708Z,42.80
2018-05-02T16:36:05.813Z,42.79
2018-05-02T16:38:16.931Z,42.90
2018-05-02T16:40:28.100Z,43.03
2018-05-02T16:42:39.224Z,43.08
2018-05-02T16:44:50.339Z,43.08
2018-05-02T16:47:01.434Z,42.68
2018-05-02T16:49:12.559Z,43.23
2018-05-02T16:51:23.620Z,43.43
2018-05-02T16:53:34.742Z,43.61
2018-05-02T16:55:45.929Z,43.42
2018-05-02T16:57:57.075Z,43.49
2018-05-02T17:00:08.229Z,43.68
2018-05-02T17:02:19.303Z,43.85
2018-05-02T17:04:30.569Z,44.15
2018-05-02T17:06:41.621Z,44.14
2018-05-02T17:08:52.755Z,43.74
2018-05-02T17:11:03.845Z,43.77
2018-05-02T17:13:14.939Z,44.58
2018-05-02T17:15:26.193Z,44.48
2018-05-02T17:17:37.305Z,44.66
2018-05-02T17:19:48.442Z,44.77
2018-05-02T17:21:59.625Z,45.13
2018-05-02T17:24:10.747Z,44.62
2018-05-02T17:26:21.882Z,44.75
2018-05-02T17:28:32.997Z,44.94
2018-05-02T17:30:44.125Z,44.99
2018-05-02T17:32:55.211Z,44.96
2018-05-02T17:35:06.378Z,45.20
2018-05-02T17:37:17.491Z,45.10
2018-05-02T17:39:28.789Z,45.29
2018-05-02T17:41:40.014Z,45.43
2018-05-02T17:43:51.146Z,45.82
2018-05-02T17:46:02.405Z,45.71
2018-05-02T17:48:13.573Z,46.22
2018-05-02T17:50:24.740Z,46.76
2018-05-02T17:52:35.944Z,46.32
2018-05-02T17:54:47.234Z,45.94
2018-05-02T17:56:58.343Z,46.16
2018-05-02T17:59:09.434Z,46.16
2018-05-02T18:01:20.558Z,46.06
2018-05-02T18:03:31.645Z,46.24
2018-05-02T18:05:42.786Z,46.32
2018-05-02T18:07:54.034Z,46.32
2018-05-02T18:10:05.174Z,46.71
2018-05-02T18:12:16.430Z,46.46
2018-05-02T18:14:27.526Z,46.92
2018-05-02T18:16:38.717Z,47.15
2018-05-02T18:18:49.872Z,47.53
2018-05-02T18:21:00.947Z,47.34
2018-05-02T18:23:12.073Z,47.38
2018-05-02T18:25:23.157Z,47.50
2018-05-02T18:27:34.304Z,47.44
2018-05-02T18:29:45.474Z,47.61
2018-05-02T18:31:56.630Z,47.65
2018-05-02T18:34:07.850Z,47.83
2018-05-02T18:36:19.058Z,47.96
2018-05-02T18:38:30.163Z,47.92
2018-05-02T18:40:41.279Z,47.82
2018-05-02T18:42:52.339Z,48.08
2018-05-02T18:45:03.452Z,48.35
2018-05-02T18:47:14.611Z,47.97
2018-05-02T18:49:25.692Z,47.60
2018-05-02T18:51:36.827Z,47.85
2018-05-02T18:53:48.011Z,47.68
2018-05-02T18:55:59.156Z,47.92
2018-05-02T18:58:10.267Z,47.80
2018-05-02T19:00:21.373Z,47.57
2018-05-02T19:02:32.629Z,47.80
2018-05-02T19:04:43.753Z,47.89
2018-05-02T19:06:55.002Z,48.51
2018-05-02T19:09:06.113Z,48.36
2018-05-02T19:11:17.340Z,48.62
2018-05-02T19:13:28.442Z,48.92
2018-05-02T19:15:39.546Z,48.68
2018-05-02T19:17:56.718Z,48.47
2018-05-02T19:20:13.863Z,48.29
2018-05-02T19:22:24.986Z,47.94
2018-05-02T19:24:42.231Z,48.08
2018-05-02T19:26:53.369Z,48.36
2018-05-02T19:29:04.499Z,48.32
2018-05-02T19:31:21.514Z,48.86
2018-05-02T19:33:38.625Z,49.16
2018-05-02T19:35:49.759Z,49.73
2018-05-02T19:38:00.879Z,49.54
2018-05-02T19:40:18.091Z,49.93
2018-05-02T19:42:35.169Z,51.00
2018-05-02T19:44:46.263Z,51.05
2018-05-02T19:46:57.365Z,51.02
2018-05-02T19:49:08.504Z,51.04
2018-05-02T19:51:25.795Z,51.77
2018-05-02T19:53:36.897Z,51.87
2018-05-02T19:55:48.018Z,51.89
2018-05-02T19:57:59.146Z,51.71
2018-05-02T20:00:16.405Z,51.51
2018-05-02T20:02:33.610Z,51.67
2018-05-02T20:04:44.802Z,52.73
2018-05-02T20:06:55.940Z,53.05
2018-05-02T20:09:13.217Z,53.22
2018-05-02T20:11:30.357Z,53.61
2018-05-02T20:13:47.428Z,53.88
2018-05-02T20:15:58.491Z,53.93
2018-05-02T20:18:09.651Z,54.04
2018-05-02T20:20:20.770Z,53.88
2018-05-02T20:22:31.835Z,53.83
2018-05-02T20:24:43.093Z,54.26
2018-05-02T20:26:54.182Z,53.99
2018-05-02T20:29:05.362Z,53.92
2018-05-02T20:31:16.450Z,52.89
2018-05-02T20:33:27.569Z,53.09
2018-05-02T20:35:38.658Z,52.90
2018-05-02T20:37:49.770Z,52.47
2018-05-02T20:40:00.938Z,52.57
2018-05-02T20:42:12.040Z,52.63
2018-05-02T20:44:23.157Z,52.62
2018-05-02T20:46:34.342Z,53.09
2018-05-02T20:48:45.432Z,53.72
2018-05-02T20:50:56.530Z,53.92
2018-05-02T20:53:07.640Z,54.31
2018-05-02T20:55:18.788Z,54.28
2018-05-02T20:57:29.862Z,54.52
2018-05-02T20:59:41.065Z,54.75
2018-05-02T21:01:52.199Z,55.07
2018-05-02T21:04:03.353Z,55.04
2018-05-02T21:06:14.461Z,55.23
2018-05-02T21:08:25.570Z,55.23
2018-05-02T21:10:36.678Z,55.70
2018-05-02T21:12:47.754Z,55.85
2018-05-02T21:14:58.909Z,55.61
2018-05-02T21:17:10.033Z,55.62
2018-05-02T21:19:21.129Z,55.46
2018-05-02T21:21:32.250Z,55.18
2018-05-02T21:23:43.432Z,55.14
2018-05-02T21:25:54.508Z,55.07
2018-05-02T21:28:05.625Z,55.08
2018-05-02T21:30:16.717Z,55.41
2018-05-02T21:32:27.859Z,55.27
2018-05-02T21:34:38.940Z,55.43
2018-05-02T21:36:50.042Z,55.43
2018-05-02T21:39:01.114Z,55.39
2018-05-02T21:41:12.241Z,55.31
2018-05-02T21:43:23.463Z,55.44
2018-05-02T21:45:34.542Z,55.50
2018-05-02T21:47:45.713Z,55.46
2018-05-02T21:49:56.744Z,55.50
2018-05-02T21:52:07.890Z,55.44
2018-05-02T21:54:19.025Z,55.83
2018-05-02T21:56:30.103Z,55.64
2018-05-02T21:58:41.173Z,55.84
2018-05-02T22:00:52.251Z,55.73
2018-05-02T22:03:03.397Z,55.53
2018-05-02T22:05:14.476Z,55.42
2018-05-02T22:07:25.656Z,55.69
2018-05-02T22:09:36.723Z,55.59
2018-05-02T22:11:47.905Z,55.79
2018-05-02T22:13:59.158Z,55.69
2018-05-02T22:16:10.221Z,55.58
2018-05-02T22:18:21.362Z,56.17
2018-05-02T22:20:32.432Z,55.75
2018-05-02T22:22:43.548Z,55.88
2018-05-02T22:24:54.640Z,55.81
2018-05-02T22:27:05.730Z,55.96
2018-05-02T22:29:16.801Z,55.80
2018-05-02T22:31:27.878Z,55.95
2018-05-02T22:33:39.094Z,56.01
2018-05-02T22:35:50.181Z,55.97
2018-05-02T22:38:01.294Z,56.11
2018-05-02T22:40:12.342Z,56.47
2018-05-02T22:42:23.439Z,56.42
2018-05-02T22:44:34.488Z,56.44
2018-05-02T22:46:45.671Z,56.62
2018-05-02T22:48:56.808Z,56.48
2018-05-02T22:51:08.066Z,56.66
2018-05-02T22:53:19.219Z,56.94
2018-05-02T22:55:30.306Z,56.95
2018-05-02T22:57:41.533Z,56.87
2018-05-02T22:59:52.623Z,56.83
2018-05-02T23:02:03.725Z,56.74
2018-05-02T23:04:14.830Z,56.77
2018-05-02T23:06:25.946Z,56.65
2018-05-02T23:08:36.998Z,56.40
2018-05-02T23:10:48.182Z,56.52
2018-05-02T23:12:59.289Z,56.69
2018-05-02T23:15:10.378Z,57.00
2018-05-02T23:17:21.603Z,57.45
2018-05-02T23:19:32.661Z,57.43
2018-05-02T23:21:43.707Z,57.31
2018-05-02T23:23:54.803Z,57.15
2018-05-02T23:26:05.882Z,56.97
2018-05-02T23:28:17.021Z,57.08
2018-05-02T23:30:28.254Z,57.55
2018-05-02T23:32:39.366Z,57.41
2018-05-02T23:34:50.544Z,57.27
2018-05-02T23:37:01.686Z,57.13
2018-05-02T23:39:12.847Z,57.23
2018-05-02T23:41:24.202Z,57.08
2018-05-02T23:43:35.217Z,57.14
2018-05-02T23:45:46.326Z,57.43
2018-05-02T23:47:57.411Z,57.37
2018-05-02T23:50:08.509Z,57.69
2018-05-02T23:52:19.642Z,58.03
2018-05-02T23:54:30.703Z,57.80
2018-05-02T23:56:41.821Z,57.95
2018-05-02T23:58:52.901Z,57.92
